createdAt,value
2022-08-24T00:00:09.325Z,50.26
2022-08-24T00:02:35.884Z,50.86
2022-08-24T00:05:03.352Z,50.92
2022-08-24T00:07:29.846Z,51.69
2022-08-24T00:09:56.311Z,52.13
2022-08-24T00:12:23.315Z,53.56
2022-08-24T00:14:50.548Z,52.89
2022-08-24T00:17:18.019Z,52.55
2022-08-24T00:19:44.507Z,52.27
2022-08-24T00:22:11.003Z,52.93
2022-08-24T00:24:37.581Z,53.29
2022-08-24T00:27:04.653Z,53.41
2022-08-24T00:29:31.053Z,53.42
2022-08-24T00:31:57.505Z,54.40
2022-08-24T00:34:25.441Z,54.10
2022-08-24T00:36:53.145Z,54.57
2022-08-24T00:39:20.488Z,54.49
2022-08-24T00:41:49.249Z,54.17
2022-08-24T00:44:16.893Z,55.13
2022-08-24T00:46:56.484Z,54.32
2022-08-24T00:49:33.632Z,54.61
2022-08-24T00:52:12.335Z,54.65
2022-08-24T00:54:46.483Z,54.63
2022-08-24T00:57:17.179Z,54.40
2022-08-24T00:59:49.186Z,55.05
2022-08-24T01:02:22.237Z,55.10
2022-08-24T01:04:55.381Z,55.32
2022-08-24T01:07:26.900Z,55.13
2022-08-24T01:09:57.915Z,55.11
2022-08-24T01:12:25.459Z,55.41
2022-08-24T01:14:52.703Z,55.92
2022-08-24T01:17:38.025Z,56.34
2022-08-24T01:20:07.230Z,58.08
2022-08-24T01:23:11.406Z,57.10
2022-08-24T01:25:41.860Z,57.02
2022-08-24T01:28:16.703Z,56.85
2022-08-24T01:30:47.218Z,57.33
2022-08-24T01:33:28.208Z,56.84
2022-08-24T01:35:59.606Z,57.09
2022-08-24T01:38:26.665Z,56.17
2022-08-24T01:40:57.617Z,55.72
2022-08-24T01:43:24.445Z,55.74
2022-08-24T01:45:51.491Z,56.39
2022-08-24T01:48:19.935Z,56.19
2022-08-24T01:50:49.548Z,56.46
2022-08-24T01:53:16.173Z,56.44
2022-08-24T01:55:44.887Z,57.92
2022-08-24T01:58:12.323Z,58.58
2022-08-24T02:00:39.411Z,58.20
2022-08-24T02:03:06.859Z,58.61
2022-08-24T02:05:34.471Z,59.56
2022-08-24T02:08:01.159Z,59.15
2022-08-24T02:10:28.796Z,59.83
2022-08-24T02:12:58.396Z,60.51
2022-08-24T02:15:31.584Z,61.74
2022-08-24T02:17:58.393Z,61.13
2022-08-24T02:20:25.030Z,61.37
2022-08-24T02:22:52.513Z,61.53
2022-08-24T02:25:20.158Z,63.18
2022-08-24T02:27:46.612Z,63.68
2022-08-24T02:30:13.939Z,64.72
2022-08-24T02:32:41.811Z,64.84
2022-08-24T02:35:08.808Z,64.82
2022-08-24T02:37:35.308Z,68.48
2022-08-24T02:40:10.254Z,69.39
2022-08-24T02:42:37.051Z,70.81
2022-08-24T02:45:05.492Z,71.54
2022-08-24T02:47:38.367Z,71.51
2022-08-24T02:50:08.687Z,67.66
2022-08-24T02:52:37.127Z,65.32
2022-08-24T02:55:04.540Z,63.41
2022-08-24T02:57:31.015Z,63.12
2022-08-24T02:59:57.527Z,63.33
2022-08-24T03:02:23.973Z,62.53
2022-08-24T03:04:50.494Z,62.30
2022-08-24T03:07:16.933Z,63.19
2022-08-24T03:09:43.353Z,63.76
2022-08-24T03:12:09.784Z,64.61
2022-08-24T03:14:36.264Z,64.73
2022-08-24T03:17:03.144Z,64.63
2022-08-24T03:19:29.938Z,64.86
2022-08-24T03:21:56.731Z,64.34
2022-08-24T03:24:23.415Z,64.91
2022-08-24T03:26:50.230Z,64.44
2022-08-24T03:29:16.870Z,65.43
2022-08-24T03:31:43.713Z,65.23
2022-08-24T03:34:13.383Z,64.93
2022-08-24T03:36:46.752Z,64.73
2022-08-24T03:39:14.803Z,65.35
2022-08-24T03:41:41.613Z,65.43
2022-08-24T03:44:08.187Z,65.84
2022-08-24T03:46:36.731Z,65.77
2022-08-24T03:49:06.030Z,66.00
2022-08-24T03:51:32.451Z,66.53
2022-08-24T03:54:00.487Z,67.27
2022-08-24T03:56:27.706Z,66.53
2022-08-24T03:58:55.569Z,66.82
2022-08-24T04:01:22.401Z,66.98
2022-08-24T04:03:49.363Z,66.72
2022-08-24T04:06:18.255Z,67.38
2022-08-24T04:08:45.079Z,67.77
2022-08-24T04:11:13.339Z,67.49
2022-08-24T04:13:40.597Z,68.23
2022-08-24T04:16:08.686Z,67.67
2022-08-24T04:18:36.146Z,67.67
2022-08-24T04:21:03.166Z,68.33
2022-08-24T04:23:47.121Z,68.97
2022-08-24T04:26:15.429Z,68.69
2022-08-24T04:28:41.976Z,69.43
2022-08-24T04:31:08.717Z,69.87
2022-08-24T04:33:35.691Z,70.37
2022-08-24T04:36:06.004Z,70.77
2022-08-24T04:38:32.443Z,70.30
2022-08-24T04:41:00.199Z,70.13
2022-08-24T04:43:26.908Z,70.87
2022-08-24T04:45:53.384Z,71.07
2022-08-24T04:48:19.938Z,72.72
2022-08-24T04:50:46.458Z,73.45
2022-08-24T04:53:14.118Z,74.25
2022-08-24T04:55:46.390Z,74.69
2022-08-24T04:58:14.856Z,74.88
2022-08-24T05:00:41.313Z,75.39
2022-08-24T05:03:07.771Z,76.45
2022-08-24T05:05:34.382Z,76.78
2022-08-24T05:08:00.856Z,76.25
2022-08-24T05:10:27.556Z,76.31
2022-08-24T05:13:00.190Z,76.54
2022-08-24T05:15:26.627Z,76.21
2022-08-24T05:17:53.051Z,77.25
2022-08-24T05:20:20.151Z,77.09
2022-08-24T05:22:46.579Z,77.33
2022-08-24T05:25:12.995Z,77.84
2022-08-24T05:27:39.417Z,77.80
2022-08-24T05:30:06.429Z,78.16
2022-08-24T05:32:32.883Z,77.92
2022-08-24T05:35:01.214Z,77.89
2022-08-24T05:37:27.739Z,77.74
2022-08-24T05:39:54.178Z,81.94
2022-08-24T05:42:20.606Z,79.78
2022-08-24T05:44:47.110Z,78.48
2022-08-24T05:47:14.072Z,78.37
2022-08-24T05:49:41.679Z,79.36
2022-08-24T05:52:08.821Z,78.95
2022-08-24T05:54:35.249Z,77.49
2022-08-24T05:57:04.708Z,76.80
2022-08-24T05:59:32.197Z,77.62
2022-08-24T06:01:58.824Z,76.86
2022-08-24T06:04:25.719Z,77.08
2022-08-24T06:06:52.818Z,77.66
2022-08-24T06:09:19.259Z,78.12
2022-08-24T06:11:46.839Z,77.84
2022-08-24T06:14:16.175Z,77.96
2022-08-24T06:16:45.132Z,78.47
2022-08-24T06:19:13.583Z,78.61
2022-08-24T06:21:40.987Z,79.07
2022-08-24T06:24:07.875Z,78.73
2022-08-24T06:26:52.914Z,78.81
2022-08-24T06:29:20.632Z,78.43
2022-08-24T06:31:54.125Z,77.83
2022-08-24T06:34:23.622Z,77.55
2022-08-24T06:36:50.104Z,76.78
2022-08-24T06:39:16.562Z,76.70
2022-08-24T06:41:43.965Z,75.57
2022-08-24T06:44:10.539Z,74.74
2022-08-24T06:46:37.072Z,73.00
2022-08-24T06:49:04.184Z,71.06
2022-08-24T06:51:32.378Z,69.56
2022-08-24T06:53:59.058Z,69.32
2022-08-24T06:56:25.561Z,68.10
2022-08-24T06:58:51.956Z,68.12
2022-08-24T07:01:21.422Z,67.89
2022-08-24T07:03:48.193Z,67.88
2022-08-24T07:06:14.902Z,66.80
2022-08-24T07:08:42.835Z,66.26
2022-08-24T07:11:11.137Z,66.08
2022-08-24T07:13:37.878Z,66.01
2022-08-24T07:16:05.134Z,65.67
2022-08-24T07:18:31.560Z,64.65
2022-08-24T07:21:02.248Z,63.38
2022-08-24T07:23:41.139Z,63.61
2022-08-24T07:26:21.144Z,62.55
2022-08-24T07:29:01.098Z,61.55
2022-08-24T07:31:29.997Z,61.23
2022-08-24T07:33:58.521Z,59.97
2022-08-24T07:36:24.936Z,60.07
2022-08-24T07:38:55.056Z,59.49
2022-08-24T07:41:51.548Z,59.00
2022-08-24T07:44:10.993Z,58.36
2022-08-24T07:46:39.150Z,57.38
2022-08-24T07:49:31.674Z,55.59
2022-08-24T07:51:55.747Z,53.23
2022-08-24T07:54:22.205Z,50.88
2022-08-24T07:56:50.158Z,48.65
2022-08-24T07:59:17.447Z,47.32
2022-08-24T08:01:44.056Z,46.26
2022-08-24T08:04:10.550Z,45.04
2022-08-24T08:06:37.390Z,44.51
2022-08-24T08:09:05.588Z,43.57
2022-08-24T08:11:32.809Z,42.57
2022-08-24T08:13:59.473Z,43.46
2022-08-24T08:16:26.340Z,44.37
2022-08-24T08:19:09.268Z,44.01
2022-08-24T08:22:04.960Z,43.47
2022-08-24T08:24:31.381Z,43.05
2022-08-24T08:26:57.977Z,43.02
2022-08-24T08:29:25.625Z,42.90
2022-08-24T08:31:52.631Z,42.61
2022-08-24T08:34:19.048Z,43.14
2022-08-24T08:36:45.887Z,43.30
2022-08-24T08:39:15.694Z,44.46
2022-08-24T08:42:08.618Z,43.97
2022-08-24T08:44:53.520Z,44.23
2022-08-24T08:47:46.182Z,44.56
2022-08-24T08:50:26.207Z,44.30
2022-08-24T08:53:04.888Z,44.96
2022-08-24T08:55:56.197Z,44.57
2022-08-24T08:58:57.391Z,44.30
2022-08-24T09:02:01.661Z,43.16
2022-08-24T09:04:46.341Z,42.65
2022-08-24T09:07:30.452Z,41.83
2022-08-24T09:10:33.823Z,40.74
2022-08-24T09:13:16.036Z,39.28
2022-08-24T09:16:22.799Z,37.41
2022-08-24T09:19:02.125Z,35.38
2022-08-24T09:22:05.988Z,34.54
2022-08-24T09:24:53.898Z,34.60
2022-08-24T09:27:42.046Z,35.64
2022-08-24T09:30:34.611Z,35.09
2022-08-24T09:33:14.815Z,33.57
2022-08-24T09:35:50.419Z,33.51
2022-08-24T09:38:39.491Z,30.98
2022-08-24T09:41:45.171Z,30.78
2022-08-24T09:44:41.944Z,29.22
2022-08-24T09:47:26.518Z,29.60
2022-08-24T09:50:42.286Z,29.21
2022-08-24T09:53:30.575Z,29.25
2022-08-24T09:56:22.017Z,28.97
2022-08-24T09:59:11.492Z,29.19
2022-08-24T10:02:08.634Z,29.03
2022-08-24T10:04:53.420Z,29.44
2022-08-24T10:07:40.201Z,30.36
2022-08-24T10:10:13.722Z,30.29
2022-08-24T10:12:57.187Z,29.56
2022-08-24T10:15:37.003Z,29.01
2022-08-24T10:18:38.465Z,29.83
2022-08-24T10:21:29.287Z,30.28
2022-08-24T10:24:49.415Z,30.08
2022-08-24T10:27:20.879Z,29.52
2022-08-24T10:30:08.928Z,29.11
2022-08-24T10:33:03.994Z,29.33
2022-08-24T10:35:54.604Z,28.88
2022-08-24T10:39:17.549Z,28.32
2022-08-24T10:42:43.420Z,27.89
2022-08-24T10:45:35.796Z,27.47
2022-08-24T10:48:35.968Z,27.85
2022-08-24T10:51:34.553Z,28.21
2022-08-24T10:54:01.308Z,28.33
2022-08-24T10:56:33.735Z,28.82
2022-08-24T10:59:13.942Z,28.95
2022-08-24T11:01:40.480Z,28.37
2022-08-24T11:04:12.432Z,27.65
2022-08-24T11:07:09.660Z,27.82
2022-08-24T11:09:46.540Z,27.50
2022-08-24T11:12:32.472Z,27.36
2022-08-24T11:15:24.772Z,27.74
2022-08-24T11:17:58.842Z,28.13
2022-08-24T11:20:30.277Z,27.43
2022-08-24T11:23:08.667Z,27.13
2022-08-24T11:25:37.849Z,27.29
2022-08-24T11:28:15.590Z,26.76
2022-08-24T11:30:42.154Z,27.14
2022-08-24T11:33:27.313Z,27.58
2022-08-24T11:35:53.929Z,27.07
2022-08-24T11:38:23.747Z,26.88
2022-08-24T11:40:54.624Z,27.91
2022-08-24T11:43:33.049Z,27.41
2022-08-24T11:46:07.353Z,27.81
2022-08-24T11:48:43.556Z,27.45
2022-08-24T11:51:25.133Z,27.76
2022-08-24T11:54:03.520Z,27.83
2022-08-24T11:56:50.869Z,27.42
2022-08-24T11:59:29.183Z,27.73
2022-08-24T12:02:11.931Z,28.01
2022-08-24T12:04:54.811Z,27.49
2022-08-24T12:07:52.100Z,27.76
2022-08-24T12:10:36.691Z,28.36
2022-08-24T12:13:03.541Z,28.29
2022-08-24T12:15:43.475Z,28.85
2022-08-24T12:18:28.236Z,29.13
2022-08-24T12:20:56.756Z,29.51
2022-08-24T12:23:37.421Z,29.45
2022-08-24T12:26:13.277Z,28.96
2022-08-24T12:28:59.395Z,29.08
2022-08-24T12:31:43.910Z,29.12
2022-08-24T12:34:18.246Z,28.98
2022-08-24T12:37:01.174Z,28.98
2022-08-24T12:39:36.626Z,28.75
2022-08-24T12:42:31.724Z,29.22
2022-08-24T12:45:09.148Z,29.07
2022-08-24T12:47:44.473Z,29.38
2022-08-24T12:50:24.590Z,29.07
2022-08-24T12:53:18.509Z,28.74
2022-08-24T12:56:14.700Z,29.46
2022-08-24T12:59:02.436Z,28.70
2022-08-24T13:01:36.032Z,28.45
2022-08-24T13:04:16.027Z,28.30
2022-08-24T13:06:49.289Z,27.59
2022-08-24T13:09:35.432Z,28.24
2022-08-24T13:12:32.913Z,28.00
2022-08-24T13:15:28.133Z,27.84
2022-08-24T13:18:02.637Z,27.30
2022-08-24T13:20:32.523Z,27.00
2022-08-24T13:23:21.623Z,27.08
2022-08-24T13:25:48.036Z,27.44
2022-08-24T13:28:20.654Z,27.01
2022-08-24T13:31:32.504Z,26.71
2022-08-24T13:34:09.127Z,26.06
2022-08-24T13:36:42.957Z,26.11
2022-08-24T13:39:17.714Z,26.20
2022-08-24T13:42:05.680Z,26.43
2022-08-24T13:44:46.064Z,26.29
2022-08-24T13:47:19.793Z,26.61
2022-08-24T13:50:08.154Z,26.26
2022-08-24T13:52:43.100Z,26.64
2022-08-24T13:55:14.738Z,26.33
2022-08-24T13:57:45.083Z,25.75
2022-08-24T14:00:15.030Z,25.26
2022-08-24T14:03:08.132Z,25.48
2022-08-24T14:05:49.817Z,25.72
2022-08-24T14:08:40.386Z,25.83
2022-08-24T14:11:32.731Z,25.52
2022-08-24T14:14:16.999Z,24.98
2022-08-24T14:17:23.411Z,24.60
2022-08-24T14:20:00.712Z,23.96
2022-08-24T14:22:36.314Z,24.82
2022-08-24T14:25:23.626Z,24.91
2022-08-24T14:27:58.936Z,25.25
2022-08-24T14:30:25.332Z,25.19
2022-08-24T14:32:57.477Z,25.25
2022-08-24T14:35:39.029Z,25.19
2022-08-24T14:38:14.617Z,25.80
2022-08-24T14:41:17.923Z,25.82
2022-08-24T14:44:06.832Z,25.87
2022-08-24T14:46:43.679Z,25.91
2022-08-24T14:49:35.587Z,25.78
2022-08-24T14:52:22.175Z,24.72
2022-08-24T14:55:11.053Z,25.16
2022-08-24T14:57:49.404Z,25.25
2022-08-24T15:00:20.426Z,24.65
2022-08-24T15:03:08.219Z,24.60
2022-08-24T15:05:34.984Z,23.85
2022-08-24T15:08:29.502Z,24.81
2022-08-24T15:11:02.339Z,25.30
2022-08-24T15:13:40.518Z,25.34
2022-08-24T15:16:33.361Z,26.03
2022-08-24T15:19:09.114Z,26.25
2022-08-24T15:21:56.814Z,25.82
2022-08-24T15:24:42.631Z,25.89
2022-08-24T15:27:55.740Z,25.80
2022-08-24T15:30:34.676Z,25.38
2022-08-24T15:33:05.864Z,25.71
2022-08-24T15:35:38.142Z,25.90
2022-08-24T15:38:22.616Z,25.69
2022-08-24T15:40:53.066Z,25.45
2022-08-24T15:43:19.718Z,25.31
2022-08-24T15:45:51.221Z,25.20
2022-08-24T15:48:21.339Z,24.89
2022-08-24T15:50:48.666Z,25.06
2022-08-24T15:53:33.380Z,25.38
2022-08-24T15:56:25.669Z,25.48
2022-08-24T15:58:52.271Z,25.66
2022-08-24T16:01:40.779Z,26.03
2022-08-24T16:04:35.076Z,25.72
2022-08-24T16:07:01.573Z,25.16
2022-08-24T16:09:27.954Z,25.22
2022-08-24T16:12:12.727Z,25.02
2022-08-24T16:15:17.145Z,24.71
2022-08-24T16:17:54.893Z,24.92
2022-08-24T16:20:25.059Z,24.83
2022-08-24T16:23:28.564Z,24.27
2022-08-24T16:26:21.058Z,24.41
2022-08-24T16:28:48.673Z,24.61
2022-08-24T16:31:40.927Z,24.56
2022-08-24T16:34:44.191Z,25.13
2022-08-24T16:37:11.359Z,24.95
2022-08-24T16:39:38.019Z,25.10
2022-08-24T16:42:10.677Z,24.97
2022-08-24T16:44:43.574Z,24.70
2022-08-24T16:47:10.255Z,24.81
2022-08-24T16:49:37.372Z,24.97
2022-08-24T16:52:04.178Z,25.20
2022-08-24T16:54:31.710Z,25.36
2022-08-24T16:57:11.416Z,25.89
2022-08-24T16:59:37.946Z,26.39
2022-08-24T17:02:04.539Z,27.03
2022-08-24T17:04:32.315Z,27.31
2022-08-24T17:06:59.075Z,27.33
2022-08-24T17:09:25.575Z,27.56
2022-08-24T17:11:52.036Z,27.65
2022-08-24T17:14:19.558Z,27.83
2022-08-24T17:16:46.825Z,28.04
2022-08-24T17:19:17.364Z,27.63
2022-08-24T17:21:44.838Z,28.40
2022-08-24T17:24:11.825Z,28.57
2022-08-24T17:26:44.925Z,28.72
2022-08-24T17:29:15.301Z,28.54
2022-08-24T17:31:47.129Z,28.31
2022-08-24T17:34:13.811Z,28.51
2022-08-24T17:36:41.448Z,28.71
2022-08-24T17:39:11.126Z,28.61
2022-08-24T17:41:38.243Z,28.87
2022-08-24T17:44:08.330Z,29.05
2022-08-24T17:46:35.308Z,28.52
2022-08-24T17:49:01.792Z,28.87
2022-08-24T17:51:28.206Z,29.10
2022-08-24T17:53:54.682Z,30.00
2022-08-24T17:56:21.384Z,29.46
2022-08-24T17:59:13.930Z,29.10
2022-08-24T18:01:40.518Z,29.25
2022-08-24T18:04:06.948Z,29.35
2022-08-24T18:06:33.379Z,29.68
2022-08-24T18:09:03.906Z,29.96
2022-08-24T18:11:30.912Z,30.17
2022-08-24T18:13:57.319Z,29.81
2022-08-24T18:16:27.447Z,30.22
2022-08-24T18:18:55.200Z,30.06
2022-08-24T18:21:22.426Z,30.37
2022-08-24T18:23:50.239Z,30.56
2022-08-24T18:26:21.490Z,30.84
2022-08-24T18:28:53.868Z,30.61
2022-08-24T18:31:22.500Z,30.91
2022-08-24T18:33:49.852Z,31.19
2022-08-24T18:36:17.197Z,31.12
2022-08-24T18:38:43.587Z,31.27
2022-08-24T18:41:11.068Z,31.32
2022-08-24T18:43:37.742Z,31.56
2022-08-24T18:46:05.829Z,31.72
2022-08-24T18:48:32.555Z,32.29
2022-08-24T18:50:59.160Z,31.85
2022-08-24T18:53:26.811Z,31.78
2022-08-24T18:55:53.298Z,31.64
2022-08-24T18:58:19.923Z,32.46
2022-08-24T19:00:47.437Z,32.98
2022-08-24T19:03:17.246Z,33.49
2022-08-24T19:05:45.384Z,34.87
2022-08-24T19:08:12.256Z,33.68
2022-08-24T19:10:39.437Z,33.45
2022-08-24T19:13:15.380Z,34.54
2022-08-24T19:15:42.754Z,34.25
2022-08-24T19:18:11.244Z,34.27
2022-08-24T19:20:47.452Z,34.08
2022-08-24T19:23:20.294Z,35.81
2022-08-24T19:25:47.210Z,35.41
2022-08-24T19:28:13.924Z,34.72
2022-08-24T19:30:42.119Z,35.40
2022-08-24T19:33:13.816Z,36.03
2022-08-24T19:35:40.599Z,35.20
2022-08-24T19:38:07.322Z,35.99
2022-08-24T19:40:33.707Z,35.89
2022-08-24T19:43:02.489Z,36.13
2022-08-24T19:45:47.798Z,36.75
2022-08-24T19:48:14.236Z,36.54
2022-08-24T19:50:41.327Z,37.62
2022-08-24T19:53:10.161Z,37.01
2022-08-24T19:55:36.725Z,38.13
2022-08-24T19:58:16.110Z,37.88
2022-08-24T20:00:48.274Z,38.45
2022-08-24T20:03:18.644Z,38.13
2022-08-24T20:05:45.707Z,39.03
2022-08-24T20:08:12.831Z,38.71
2022-08-24T20:10:39.687Z,38.86
2022-08-24T20:13:06.461Z,39.26
2022-08-24T20:15:33.955Z,39.40
2022-08-24T20:18:00.626Z,39.93
2022-08-24T20:20:28.487Z,41.04
2022-08-24T20:22:55.554Z,41.08
2022-08-24T20:25:22.514Z,41.09
2022-08-24T20:27:52.422Z,42.08
2022-08-24T20:30:24.693Z,42.37
2022-08-24T20:32:51.154Z,42.13
2022-08-24T20:35:17.631Z,42.91
2022-08-24T20:37:44.411Z,43.21
2022-08-24T20:40:15.274Z,43.36
2022-08-24T20:42:42.026Z,44.36
2022-08-24T20:45:12.711Z,44.07
2022-08-24T20:47:45.702Z,44.50
2022-08-24T20:50:12.274Z,45.04
2022-08-24T20:52:42.063Z,45.37
2022-08-24T20:55:10.811Z,45.58
2022-08-24T20:57:37.683Z,45.98
2022-08-24T21:00:07.233Z,46.21
2022-08-24T21:02:33.634Z,46.29
2022-08-24T21:05:00.075Z,46.77
2022-08-24T21:07:26.565Z,47.38
2022-08-24T21:09:53.393Z,47.20
2022-08-24T21:12:19.801Z,47.94
2022-08-24T21:14:46.196Z,47.90
2022-08-24T21:17:12.728Z,48.59
2022-08-24T21:19:39.172Z,48.65
2022-08-24T21:22:06.121Z,49.33
2022-08-24T21:24:32.550Z,49.57
2022-08-24T21:27:01.737Z,50.05
2022-08-24T21:29:28.757Z,51.21
2022-08-24T21:32:13.548Z,51.21
2022-08-24T21:34:42.600Z,51.93
2022-08-24T21:37:15.221Z,52.39
2022-08-24T21:39:42.355Z,52.06
2022-08-24T21:42:09.496Z,52.24
2022-08-24T21:44:36.761Z,52.34
2022-08-24T21:47:05.700Z,52.94
2022-08-24T21:49:33.536Z,52.67
2022-08-24T21:52:00.991Z,53.27
2022-08-24T21:54:27.435Z,53.56
2022-08-24T21:56:54.075Z,53.79
2022-08-24T21:59:20.496Z,54.08
2022-08-24T22:01:47.014Z,54.59
2022-08-24T22:04:13.465Z,54.35
2022-08-24T22:06:39.897Z,54.60
2022-08-24T22:09:07.457Z,55.06
2022-08-24T22:11:34.865Z,55.27
2022-08-24T22:14:02.583Z,55.30
2022-08-24T22:16:29.585Z,55.16
2022-08-24T22:18:56.225Z,54.96
2022-08-24T22:21:26.547Z,55.16
2022-08-24T22:23:52.971Z,55.42
2022-08-24T22:26:24.773Z,55.56
2022-08-24T22:28:51.427Z,55.84
2022-08-24T22:31:22.082Z,55.94
2022-08-24T22:33:49.505Z,55.89
2022-08-24T22:36:17.170Z,56.59
2022-08-24T22:38:44.172Z,56.66
2022-08-24T22:41:10.766Z,57.17
2022-08-24T22:43:56.166Z,57.13
2022-08-24T22:46:22.880Z,58.04
2022-08-24T22:48:49.409Z,58.38
2022-08-24T22:51:16.064Z,58.73
2022-08-24T22:53:42.661Z,59.13
2022-08-24T22:56:24.229Z,59.39
2022-08-24T22:58:51.698Z,59.70
2022-08-24T23:01:24.881Z,59.96
2022-08-24T23:03:52.831Z,60.49
2022-08-24T23:06:19.932Z,60.73
2022-08-24T23:08:46.382Z,61.33
2022-08-24T23:11:13.288Z,61.53
2022-08-24T23:13:39.844Z,62.16
2022-08-24T23:16:08.683Z,62.21
2022-08-24T23:18:54.280Z,62.72
2022-08-24T23:21:20.796Z,63.35
2022-08-24T23:23:48.328Z,63.53
2022-08-24T23:26:18.320Z,64.14
2022-08-24T23:28:45.144Z,64.35
2022-08-24T23:31:19.017Z,64.94
2022-08-24T23:33:45.837Z,64.93
2022-08-24T23:36:14.970Z,65.36
2022-08-24T23:38:42.247Z,65.49
2022-08-24T23:41:15.873Z,65.24
2022-08-24T23:43:43.220Z,65.62
2022-08-24T23:46:10.612Z,66.19
2022-08-24T23:48:38.175Z,67.41
2022-08-24T23:51:11.338Z,68.88
2022-08-24T23:53:38.798Z,69.89
2022-08-24T23:56:16.998Z,70.99
2022-08-24T23:58:44.110Z,71.63
